sensor_id;sensor_type;location;lat;lon;timestamp;P1;durP1;ratioP1;P2;durP2;ratioP2
38083;SDS011;23894;51.466;7.444;2023-02-03T00:00:37;35.38;;;24.83;;
38083;SDS011;23894;51.466;7.444;2023-02-03T00:02:48;34.63;;;25.67;;
38083;SDS011;23894;51.466;7.444;2023-02-03T00:04:51;41.30;;;28.90;;
38083;SDS011;23894;51.466;7.444;2023-02-03T00:06:52;32.47;;;26.23;;
38083;SDS011;23894;51.466;7.444;2023-02-03T00:08:54;34.28;;;25.42;;
38083;SDS011;23894;51.466;7.444;2023-02-03T00:11:06;29.30;;;24.52;;
38083;SDS011;23894;51.466;7.444;2023-02-03T00:13:10;34.92;;;24.10;;
38083;SDS011;23894;51.466;7.444;2023-02-03T00:15:12;30.85;;;24.80;;
38083;SDS011;23894;51.466;7.444;2023-02-03T00:17:14;35.13;;;24.45;;
38083;SDS011;23894;51.466;7.444;2023-02-03T00:19:16;31.65;;;24.10;;
38083;SDS011;23894;51.466;7.444;2023-02-03T00:21:19;33.42;;;25.67;;
38083;SDS011;23894;51.466;7.444;2023-02-03T00:23:20;33.45;;;25.27;;
38083;SDS011;23894;51.466;7.444;2023-02-03T00:25:23;36.53;;;25.58;;
38083;SDS011;23894;51.466;7.444;2023-02-03T00:27:25;31.05;;;23.52;;
38083;SDS011;23894;51.466;7.444;2023-02-03T00:29:28;39.05;;;25.02;;
38083;SDS011;23894;51.466;7.444;2023-02-03T00:31:31;30.02;;;24.10;;
38083;SDS011;23894;51.466;7.444;2023-02-03T00:33:32;32.35;;;25.05;;
38083;SDS011;23894;51.466;7.444;2023-02-03T00:35:37;34.25;;;25.27;;
38083;SDS011;23894;51.466;7.444;2023-02-03T00:37:42;32.10;;;25.15;;
38083;SDS011;23894;51.466;7.444;2023-02-03T00:39:50;30.90;;;24.88;;
38083;SDS011;23894;51.466;7.444;2023-02-03T00:41:54;30.45;;;24.13;;
38083;SDS011;23894;51.466;7.444;2023-02-03T00:43:54;28.75;;;23.65;;
38083;SDS011;23894;51.466;7.444;2023-02-03T00:45:56;32.33;;;22.25;;
38083;SDS011;23894;51.466;7.444;2023-02-03T00:47:59;27.70;;;21.77;;
38083;SDS011;23894;51.466;7.444;2023-02-03T00:50:02;28.00;;;21.73;;
38083;SDS011;23894;51.466;7.444;2023-02-03T00:52:28;30.83;;;24.42;;
38083;SDS011;23894;51.466;7.444;2023-02-03T00:54:31;32.47;;;23.00;;
38083;SDS011;23894;51.466;7.444;2023-02-03T00:56:33;27.83;;;22.92;;
38083;SDS011;23894;51.466;7.444;2023-02-03T00:58:35;29.80;;;22.40;;
38083;SDS011;23894;51.466;7.444;2023-02-03T01:00:39;31.45;;;23.85;;
38083;SDS011;23894;51.466;7.444;2023-02-03T01:02:42;33.60;;;23.88;;
38083;SDS011;23894;51.466;7.444;2023-02-03T01:04:42;27.80;;;21.65;;
38083;SDS011;23894;51.466;7.444;2023-02-03T01:06:46;30.38;;;22.88;;
38083;SDS011;23894;51.466;7.444;2023-02-03T01:08:49;27.85;;;21.02;;
38083;SDS011;23894;51.466;7.444;2023-02-03T01:10:51;31.10;;;23.15;;
38083;SDS011;23894;51.466;7.444;2023-02-03T01:12:53;37.47;;;24.38;;
38083;SDS011;23894;51.466;7.444;2023-02-03T01:14:56;35.00;;;22.35;;
38083;SDS011;23894;51.466;7.444;2023-02-03T01:16:58;33.42;;;22.70;;
38083;SDS011;23894;51.466;7.444;2023-02-03T01:19:02;29.75;;;21.23;;
38083;SDS011;23894;51.466;7.444;2023-02-03T01:21:06;29.80;;;22.75;;
38083;SDS011;23894;51.466;7.444;2023-02-03T01:23:10;32.08;;;22.95;;
38083;SDS011;23894;51.466;7.444;2023-02-03T01:25:11;33.60;;;22.13;;
38083;SDS011;23894;51.466;7.444;2023-02-03T01:27:13;31.33;;;22.63;;
38083;SDS011;23894;51.466;7.444;2023-02-03T01:29:15;31.23;;;21.98;;
38083;SDS011;23894;51.466;7.444;2023-02-03T01:31:19;31.27;;;22.00;;
38083;SDS011;23894;51.466;7.444;2023-02-03T01:33:24;32.78;;;22.92;;
38083;SDS011;23894;51.466;7.444;2023-02-03T01:35:27;33.30;;;23.25;;
38083;SDS011;23894;51.466;7.444;2023-02-03T01:37:30;34.30;;;23.80;;
38083;SDS011;23894;51.466;7.444;2023-02-03T01:39:30;28.70;;;23.45;;
38083;SDS011;23894;51.466;7.444;2023-02-03T01:41:34;28.67;;;22.27;;
38083;SDS011;23894;51.466;7.444;2023-02-03T01:43:42;34.50;;;24.73;;
38083;SDS011;23894;51.466;7.444;2023-02-03T01:45:49;31.42;;;23.58;;
38083;SDS011;23894;51.466;7.444;2023-02-03T01:47:53;32.47;;;23.10;;
38083;SDS011;23894;51.466;7.444;2023-02-03T01:50:18;29.75;;;22.50;;
38083;SDS011;23894;51.466;7.444;2023-02-03T01:52:30;30.50;;;22.40;;
38083;SDS011;23894;51.466;7.444;2023-02-03T01:54:35;33.67;;;21.95;;
38083;SDS011;23894;51.466;7.444;2023-02-03T01:56:43;31.92;;;21.88;;
38083;SDS011;23894;51.466;7.444;2023-02-03T01:58:50;32.10;;;23.10;;
38083;SDS011;23894;51.466;7.444;2023-02-03T02:00:52;29.60;;;21.63;;
38083;SDS011;23894;51.466;7.444;2023-02-03T02:02:57;32.15;;;23.17;;
38083;SDS011;23894;51.466;7.444;2023-02-03T02:05:07;27.58;;;22.15;;
38083;SDS011;23894;51.466;7.444;2023-02-03T02:07:35;30.83;;;22.75;;
38083;SDS011;23894;51.466;7.444;2023-02-03T02:09:39;33.55;;;23.15;;
38083;SDS011;23894;51.466;7.444;2023-02-03T02:11:40;28.20;;;20.92;;
38083;SDS011;23894;51.466;7.444;2023-02-03T02:13:43;28.40;;;21.08;;
38083;SDS011;23894;51.466;7.444;2023-02-03T02:15:56;30.02;;;21.95;;
38083;SDS011;23894;51.466;7.444;2023-02-03T02:26:44;31.70;;;20.88;;
38083;SDS011;23894;51.466;7.444;2023-02-03T02:35:57;30.65;;;20.20;;
38083;SDS011;23894;51.466;7.444;2023-02-03T02:39:08;30.13;;;19.67;;
38083;SDS011;23894;51.466;7.444;2023-02-03T02:41:22;28.38;;;18.35;;
38083;SDS011;23894;51.466;7.444;2023-02-03T02:46:22;24.52;;;18.15;;
38083;SDS011;23894;51.466;7.444;2023-02-03T02:48:51;22.27;;;18.75;;
38083;SDS011;23894;51.466;7.444;2023-02-03T02:50:57;30.45;;;19.85;;
38083;SDS011;23894;51.466;7.444;2023-02-03T02:53:12;30.05;;;19.80;;
38083;SDS011;23894;51.466;7.444;2023-02-03T02:55:26;23.55;;;18.90;;
38083;SDS011;23894;51.466;7.444;2023-02-03T02:57:30;29.25;;;19.35;;
38083;SDS011;23894;51.466;7.444;2023-02-03T02:59:36;29.13;;;19.17;;
38083;SDS011;23894;51.466;7.444;2023-02-03T03:01:39;26.05;;;18.42;;
38083;SDS011;23894;51.466;7.444;2023-02-03T03:03:41;31.17;;;18.65;;
38083;SDS011;23894;51.466;7.444;2023-02-03T03:05:56;25.83;;;20.60;;
38083;SDS011;23894;51.466;7.444;2023-02-03T03:08:07;25.92;;;18.83;;
38083;SDS011;23894;51.466;7.444;2023-02-03T03:10:11;25.48;;;18.48;;
38083;SDS011;23894;51.466;7.444;2023-02-03T03:12:29;27.23;;;16.92;;
38083;SDS011;23894;51.466;7.444;2023-02-03T03:14:34;27.02;;;18.95;;
38083;SDS011;23894;51.466;7.444;2023-02-03T03:16:43;26.48;;;18.02;;
38083;SDS011;23894;51.466;7.444;2023-02-03T03:18:52;26.45;;;18.90;;
38083;SDS011;23894;51.466;7.444;2023-02-03T03:21:28;24.48;;;16.25;;
38083;SDS011;23894;51.466;7.444;2023-02-03T03:23:44;23.80;;;18.23;;
38083;SDS011;23894;51.466;7.444;2023-02-03T03:25:53;22.77;;;17.45;;
38083;SDS011;23894;51.466;7.444;2023-02-03T03:28:13;27.65;;;19.08;;
38083;SDS011;23894;51.466;7.444;2023-02-03T03:30:28;23.95;;;17.67;;
38083;SDS011;23894;51.466;7.444;2023-02-03T03:32:39;24.48;;;17.50;;
38083;SDS011;23894;51.466;7.444;2023-02-03T03:34:41;22.48;;;17.60;;
38083;SDS011;23894;51.466;7.444;2023-02-03T03:36:55;25.98;;;17.55;;
38083;SDS011;23894;51.466;7.444;2023-02-03T03:39:19;23.10;;;16.95;;
38083;SDS011;23894;51.466;7.444;2023-02-03T03:41:27;25.02;;;17.13;;
38083;SDS011;23894;51.466;7.444;2023-02-03T03:43:40;19.40;;;15.43;;
38083;SDS011;23894;51.466;7.444;2023-02-03T03:46:00;29.02;;;17.38;;
38083;SDS011;23894;51.466;7.444;2023-02-03T03:50:33;20.83;;;14.35;;
38083;SDS011;23894;51.466;7.444;2023-02-03T03:52:54;20.33;;;12.93;;
38083;SDS011;23894;51.466;7.444;2023-02-03T03:54:57;20.80;;;13.98;;
38083;SDS011;23894;51.466;7.444;2023-02-03T03:57:21;21.05;;;12.65;;
38083;SDS011;23894;51.466;7.444;2023-02-03T03:59:38;20.20;;;12.18;;
38083;SDS011;23894;51.466;7.444;2023-02-03T04:01:46;20.92;;;12.52;;
38083;SDS011;23894;51.466;7.444;2023-02-03T04:03:54;18.05;;;12.68;;
38083;SDS011;23894;51.466;7.444;2023-02-03T04:06:00;17.88;;;12.27;;
38083;SDS011;23894;51.466;7.444;2023-02-03T04:08:02;15.35;;;11.50;;
38083;SDS011;23894;51.466;7.444;2023-02-03T04:10:03;13.88;;;11.05;;
38083;SDS011;23894;51.466;7.444;2023-02-03T04:12:17;18.75;;;11.70;;
38083;SDS011;23894;51.466;7.444;2023-02-03T04:14:27;17.10;;;10.60;;
38083;SDS011;23894;51.466;7.444;2023-02-03T04:16:31;12.85;;;10.20;;
38083;SDS011;23894;51.466;7.444;2023-02-03T04:18:33;16.45;;;10.55;;
38083;SDS011;23894;51.466;7.444;2023-02-03T04:20:36;15.35;;;11.98;;
38083;SDS011;23894;51.466;7.444;2023-02-03T04:22:39;16.50;;;10.27;;
38083;SDS011;23894;51.466;7.444;2023-02-03T04:24:41;18.50;;;11.32;;
38083;SDS011;23894;51.466;7.444;2023-02-03T04:26:44;17.27;;;10.82;;
38083;SDS011;23894;51.466;7.444;2023-02-03T04:28:45;15.50;;;9.88;;
38083;SDS011;23894;51.466;7.444;2023-02-03T04:30:47;18.77;;;10.13;;
38083;SDS011;23894;51.466;7.444;2023-02-03T04:32:49;16.83;;;10.65;;
38083;SDS011;23894;51.466;7.444;2023-02-03T04:34:51;18.10;;;10.63;;
38083;SDS011;23894;51.466;7.444;2023-02-03T04:36:52;20.00;;;11.20;;
38083;SDS011;23894;51.466;7.444;2023-02-03T04:38:54;17.98;;;11.13;;
38083;SDS011;23894;51.466;7.444;2023-02-03T04:40:56;18.27;;;10.95;;
38083;SDS011;23894;51.466;7.444;2023-02-03T04:43:04;19.45;;;11.88;;
38083;SDS011;23894;51.466;7.444;2023-02-03T04:45:08;18.33;;;11.23;;
38083;SDS011;23894;51.466;7.444;2023-02-03T04:47:11;18.95;;;9.88;;
38083;SDS011;23894;51.466;7.444;2023-02-03T04:49:15;18.48;;;10.95;;
38083;SDS011;23894;51.466;7.444;2023-02-03T04:51:17;18.65;;;10.73;;
38083;SDS011;23894;51.466;7.444;2023-02-03T04:53:18;16.40;;;10.65;;
38083;SDS011;23894;51.466;7.444;2023-02-03T04:55:25;17.52;;;10.55;;
38083;SDS011;23894;51.466;7.444;2023-02-03T04:57:53;15.20;;;10.70;;
38083;SDS011;23894;51.466;7.444;2023-02-03T04:59:58;17.67;;;10.73;;
38083;SDS011;23894;51.466;7.444;2023-02-03T05:02:02;15.18;;;11.95;;
38083;SDS011;23894;51.466;7.444;2023-02-03T05:04:06;16.42;;;10.18;;
38083;SDS011;23894;51.466;7.444;2023-02-03T05:06:09;17.00;;;10.82;;
38083;SDS011;23894;51.466;7.444;2023-02-03T05:08:10;17.77;;;11.77;;
38083;SDS011;23894;51.466;7.444;2023-02-03T05:10:10;17.45;;;10.77;;
38083;SDS011;23894;51.466;7.444;2023-02-03T05:12:12;16.42;;;10.75;;
38083;SDS011;23894;51.466;7.444;2023-02-03T05:14:14;17.52;;;11.25;;
38083;SDS011;23894;51.466;7.444;2023-02-03T05:16:16;13.68;;;9.85;;
38083;SDS011;23894;51.466;7.444;2023-02-03T05:18:19;18.38;;;10.32;;
38083;SDS011;23894;51.466;7.444;2023-02-03T05:20:21;18.83;;;10.60;;
38083;SDS011;23894;51.466;7.444;2023-02-03T05:22:25;17.27;;;11.02;;
38083;SDS011;23894;51.466;7.444;2023-02-03T05:24:27;18.60;;;9.75;;
38083;SDS011;23894;51.466;7.444;2023-02-03T05:26:30;16.30;;;8.88;;
38083;SDS011;23894;51.466;7.444;2023-02-03T05:28:32;16.98;;;9.68;;
38083;SDS011;23894;51.466;7.444;2023-02-03T05:30:35;15.40;;;9.68;;
38083;SDS011;23894;51.466;7.444;2023-02-03T05:32:38;15.52;;;10.43;;
38083;SDS011;23894;51.466;7.444;2023-02-03T05:34:59;21.85;;;11.27;;
38083;SDS011;23894;51.466;7.444;2023-02-03T05:37:01;16.75;;;10.50;;
38083;SDS011;23894;51.466;7.444;2023-02-03T05:39:03;19.48;;;10.63;;
38083;SDS011;23894;51.466;7.444;2023-02-03T05:41:05;14.32;;;9.95;;
38083;SDS011;23894;51.466;7.444;2023-02-03T05:43:26;19.43;;;9.27;;
38083;SDS011;23894;51.466;7.444;2023-02-03T05:45:27;16.58;;;7.60;;
38083;SDS011;23894;51.466;7.444;2023-02-03T05:47:29;17.30;;;8.05;;
38083;SDS011;23894;51.466;7.444;2023-02-03T05:49:32;17.60;;;8.43;;
38083;SDS011;23894;51.466;7.444;2023-02-03T05:51:32;17.80;;;9.25;;
38083;SDS011;23894;51.466;7.444;2023-02-03T05:53:36;14.65;;;7.85;;
38083;SDS011;23894;51.466;7.444;2023-02-03T05:55:39;16.88;;;9.00;;
38083;SDS011;23894;51.466;7.444;2023-02-03T05:57:41;14.38;;;7.95;;
38083;SDS011;23894;51.466;7.444;2023-02-03T05:59:43;15.98;;;8.30;;
38083;SDS011;23894;51.466;7.444;2023-02-03T06:01:45;15.52;;;8.52;;
38083;SDS011;23894;51.466;7.444;2023-02-03T06:03:49;11.40;;;7.78;;
38083;SDS011;23894;51.466;7.444;2023-02-03T06:05:50;15.05;;;8.70;;
38083;SDS011;23894;51.466;7.444;2023-02-03T06:07:53;17.65;;;8.30;;
38083;SDS011;23894;51.466;7.444;2023-02-03T06:09:56;12.23;;;7.97;;
38083;SDS011;23894;51.466;7.444;2023-02-03T06:11:56;17.08;;;8.70;;
38083;SDS011;23894;51.466;7.444;2023-02-03T06:13:58;18.75;;;8.50;;
38083;SDS011;23894;51.466;7.444;2023-02-03T06:16:01;12.93;;;7.07;;
38083;SDS011;23894;51.466;7.444;2023-02-03T06:18:03;14.52;;;7.80;;
38083;SDS011;23894;51.466;7.444;2023-02-03T06:20:04;11.55;;;7.20;;
38083;SDS011;23894;51.466;7.444;2023-02-03T06:22:10;16.63;;;7.25;;
38083;SDS011;23894;51.466;7.444;2023-02-03T06:24:11;14.82;;;7.38;;
38083;SDS011;23894;51.466;7.444;2023-02-03T06:26:15;14.00;;;7.07;;
38083;SDS011;23894;51.466;7.444;2023-02-03T06:28:18;12.05;;;7.55;;
38083;SDS011;23894;51.466;7.444;2023-02-03T06:30:20;15.02;;;7.28;;
38083;SDS011;23894;51.466;7.444;2023-02-03T06:32:24;14.02;;;7.80;;
38083;SDS011;23894;51.466;7.444;2023-02-03T06:34:25;14.10;;;6.95;;
38083;SDS011;23894;51.466;7.444;2023-02-03T06:36:27;12.70;;;6.85;;
38083;SDS011;23894;51.466;7.444;2023-02-03T06:38:30;14.07;;;7.43;;
38083;SDS011;23894;51.466;7.444;2023-02-03T06:40:32;11.65;;;7.10;;
38083;SDS011;23894;51.466;7.444;2023-02-03T06:42:34;11.80;;;7.65;;
38083;SDS011;23894;51.466;7.444;2023-02-03T06:44:36;12.25;;;7.43;;
38083;SDS011;23894;51.466;7.444;2023-02-03T06:46:38;13.95;;;6.75;;
38083;SDS011;23894;51.466;7.444;2023-02-03T06:48:39;13.57;;;7.00;;
38083;SDS011;23894;51.466;7.444;2023-02-03T06:50:43;14.65;;;7.53;;
38083;SDS011;23894;51.466;7.444;2023-02-03T06:52:48;14.02;;;8.10;;
38083;SDS011;23894;51.466;7.444;2023-02-03T06:54:51;17.38;;;8.05;;
38083;SDS011;23894;51.466;7.444;2023-02-03T06:56:52;14.57;;;7.40;;
38083;SDS011;23894;51.466;7.444;2023-02-03T06:58:53;14.32;;;7.20;;
38083;SDS011;23894;51.466;7.444;2023-02-03T07:00:56;15.23;;;7.82;;
38083;SDS011;23894;51.466;7.444;2023-02-03T07:02:58;14.88;;;7.70;;
38083;SDS011;23894;51.466;7.444;2023-02-03T07:05:02;13.15;;;8.23;;
38083;SDS011;23894;51.466;7.444;2023-02-03T07:07:04;14.05;;;8.02;;
38083;SDS011;23894;51.466;7.444;2023-02-03T07:09:05;16.92;;;8.85;;
38083;SDS011;23894;51.466;7.444;2023-02-03T07:11:07;15.02;;;7.55;;
38083;SDS011;23894;51.466;7.444;2023-02-03T07:13:07;14.70;;;8.27;;
38083;SDS011;23894;51.466;7.444;2023-02-03T07:15:09;13.80;;;8.02;;
38083;SDS011;23894;51.466;7.444;2023-02-03T07:17:15;16.05;;;8.05;;
38083;SDS011;23894;51.466;7.444;2023-02-03T07:19:17;17.25;;;8.68;;
38083;SDS011;23894;51.466;7.444;2023-02-03T07:21:21;15.48;;;8.57;;
38083;SDS011;23894;51.466;7.444;2023-02-03T07:23:23;14.40;;;8.77;;
38083;SDS011;23894;51.466;7.444;2023-02-03T07:25:25;14.70;;;8.77;;
38083;SDS011;23894;51.466;7.444;2023-02-03T07:27:28;9.88;;;7.63;;
38083;SDS011;23894;51.466;7.444;2023-02-03T07:29:30;17.83;;;9.52;;
38083;SDS011;23894;51.466;7.444;2023-02-03T07:31:31;17.35;;;9.32;;
38083;SDS011;23894;51.466;7.444;2023-02-03T07:33:43;16.67;;;10.10;;
38083;SDS011;23894;51.466;7.444;2023-02-03T07:35:54;17.98;;;9.15;;
38083;SDS011;23894;51.466;7.444;2023-02-03T07:37:57;19.35;;;10.10;;
38083;SDS011;23894;51.466;7.444;2023-02-03T07:40:01;15.25;;;8.75;;
38083;SDS011;23894;51.466;7.444;2023-02-03T07:42:04;16.92;;;9.60;;
38083;SDS011;23894;51.466;7.444;2023-02-03T07:44:04;13.43;;;7.97;;
38083;SDS011;23894;51.466;7.444;2023-02-03T07:46:07;12.82;;;9.38;;
38083;SDS011;23894;51.466;7.444;2023-02-03T07:48:09;17.77;;;9.63;;
38083;SDS011;23894;51.466;7.444;2023-02-03T07:50:11;14.70;;;8.75;;
38083;SDS011;23894;51.466;7.444;2023-02-03T07:52:13;16.73;;;9.40;;
38083;SDS011;23894;51.466;7.444;2023-02-03T07:54:15;15.75;;;9.32;;
38083;SDS011;23894;51.466;7.444;2023-02-03T07:56:17;17.48;;;9.35;;
38083;SDS011;23894;51.466;7.444;2023-02-03T07:58:19;15.00;;;8.88;;
38083;SDS011;23894;51.466;7.444;2023-02-03T08:00:21;13.02;;;9.32;;
38083;SDS011;23894;51.466;7.444;2023-02-03T08:04:22;17.27;;;8.73;;
38083;SDS011;23894;51.466;7.444;2023-02-03T08:06:24;14.32;;;9.43;;
38083;SDS011;23894;51.466;7.444;2023-02-03T08:08:28;15.20;;;9.32;;
38083;SDS011;23894;51.466;7.444;2023-02-03T08:10:28;14.48;;;10.25;;
38083;SDS011;23894;51.466;7.444;2023-02-03T08:12:29;14.90;;;8.85;;
38083;SDS011;23894;51.466;7.444;2023-02-03T08:14:32;16.00;;;9.63;;
38083;SDS011;23894;51.466;7.444;2023-02-03T08:16:34;19.80;;;9.65;;
38083;SDS011;23894;51.466;7.444;2023-02-03T08:18:37;19.42;;;10.15;;
38083;SDS011;23894;51.466;7.444;2023-02-03T08:20:40;16.95;;;9.20;;
38083;SDS011;23894;51.466;7.444;2023-02-03T08:22:43;16.95;;;9.27;;
38083;SDS011;23894;51.466;7.444;2023-02-03T08:24:45;14.27;;;9.27;;
38083;SDS011;23894;51.466;7.444;2023-02-03T08:26:47;15.35;;;9.48;;
38083;SDS011;23894;51.466;7.444;2023-02-03T08:28:49;15.57;;;9.80;;
38083;SDS011;23894;51.466;7.444;2023-02-03T08:30:51;19.70;;;9.65;;
38083;SDS011;23894;51.466;7.444;2023-02-03T08:32:53;13.70;;;9.95;;
38083;SDS011;23894;51.466;7.444;2023-02-03T08:34:54;15.50;;;10.10;;
38083;SDS011;23894;51.466;7.444;2023-02-03T08:36:56;17.50;;;9.27;;
38083;SDS011;23894;51.466;7.444;2023-02-03T08:38:57;14.40;;;9.18;;
38083;SDS011;23894;51.466;7.444;2023-02-03T08:40:59;13.25;;;8.85;;
38083;SDS011;23894;51.466;7.444;2023-02-03T08:43:01;14.82;;;9.25;;
38083;SDS011;23894;51.466;7.444;2023-02-03T08:45:03;11.35;;;8.25;;
38083;SDS011;23894;51.466;7.444;2023-02-03T08:47:05;14.68;;;9.55;;
38083;SDS011;23894;51.466;7.444;2023-02-03T08:49:08;15.77;;;9.48;;
38083;SDS011;23894;51.466;7.444;2023-02-03T08:51:12;13.60;;;9.52;;
38083;SDS011;23894;51.466;7.444;2023-02-03T08:53:15;16.88;;;9.60;;
38083;SDS011;23894;51.466;7.444;2023-02-03T08:55:17;15.77;;;8.95;;
38083;SDS011;23894;51.466;7.444;2023-02-03T08:57:21;15.15;;;8.75;;
38083;SDS011;23894;51.466;7.444;2023-02-03T08:59:24;15.57;;;9.00;;
38083;SDS011;23894;51.466;7.444;2023-02-03T09:01:29;16.50;;;9.32;;
38083;SDS011;23894;51.466;7.444;2023-02-03T09:03:33;18.05;;;9.43;;
38083;SDS011;23894;51.466;7.444;2023-02-03T09:05:39;14.60;;;9.30;;
38083;SDS011;23894;51.466;7.444;2023-02-03T09:07:42;15.15;;;8.82;;
38083;SDS011;23894;51.466;7.444;2023-02-03T09:09:45;15.18;;;8.98;;
38083;SDS011;23894;51.466;7.444;2023-02-03T09:11:48;15.43;;;8.90;;
38083;SDS011;23894;51.466;7.444;2023-02-03T09:13:50;19.20;;;9.77;;
38083;SDS011;23894;51.466;7.444;2023-02-03T09:16:07;13.75;;;8.73;;
38083;SDS011;23894;51.466;7.444;2023-02-03T09:18:09;12.25;;;9.80;;
38083;SDS011;23894;51.466;7.444;2023-02-03T09:20:11;15.77;;;8.52;;
38083;SDS011;23894;51.466;7.444;2023-02-03T09:22:15;14.25;;;8.65;;
38083;SDS011;23894;51.466;7.444;2023-02-03T09:24:19;16.00;;;9.63;;
38083;SDS011;23894;51.466;7.444;2023-02-03T09:26:22;11.68;;;8.10;;
38083;SDS011;23894;51.466;7.444;2023-02-03T09:28:24;14.43;;;9.15;;
38083;SDS011;23894;51.466;7.444;2023-02-03T09:30:24;14.02;;;8.63;;
38083;SDS011;23894;51.466;7.444;2023-02-03T09:32:26;16.45;;;9.00;;
38083;SDS011;23894;51.466;7.444;2023-02-03T09:34:29;16.85;;;10.13;;
38083;SDS011;23894;51.466;7.444;2023-02-03T09:36:31;16.50;;;8.70;;
38083;SDS011;23894;51.466;7.444;2023-02-03T09:38:33;14.95;;;8.75;;
38083;SDS011;23894;51.466;7.444;2023-02-03T09:40:43;15.65;;;8.85;;
38083;SDS011;23894;51.466;7.444;2023-02-03T09:45:34;13.82;;;8.88;;
38083;SDS011;23894;51.466;7.444;2023-02-03T09:47:38;12.52;;;9.18;;
38083;SDS011;23894;51.466;7.444;2023-02-03T09:50:43;14.32;;;8.93;;
38083;SDS011;23894;51.466;7.444;2023-02-03T09:52:35;15.55;;;9.35;;
38083;SDS011;23894;51.466;7.444;2023-02-03T09:54:40;15.38;;;8.48;;
38083;SDS011;23894;51.466;7.444;2023-02-03T09:56:57;15.55;;;9.73;;
38083;SDS011;23894;51.466;7.444;2023-02-03T09:59:03;13.82;;;8.80;;
38083;SDS011;23894;51.466;7.444;2023-02-03T10:01:05;14.73;;;9.13;;
38083;SDS011;23894;51.466;7.444;2023-02-03T10:08:32;14.90;;;10.13;;
38083;SDS011;23894;51.466;7.444;2023-02-03T10:13:16;14.23;;;9.68;;
38083;SDS011;23894;51.466;7.444;2023-02-03T10:17:58;19.55;;;10.50;;
38083;SDS011;23894;51.466;7.444;2023-02-03T10:22:25;15.25;;;11.60;;
38083;SDS011;23894;51.466;7.444;2023-02-03T10:24:38;18.80;;;11.05;;
38083;SDS011;23894;51.466;7.444;2023-02-03T10:26:50;14.02;;;10.05;;
38083;SDS011;23894;51.466;7.444;2023-02-03T10:31:39;16.05;;;10.32;;
38083;SDS011;23894;51.466;7.444;2023-02-03T10:34:11;12.85;;;10.10;;
38083;SDS011;23894;51.466;7.444;2023-02-03T10:36:21;15.95;;;10.45;;
38083;SDS011;23894;51.466;7.444;2023-02-03T10:40:59;17.58;;;10.10;;
38083;SDS011;23894;51.466;7.444;2023-02-03T10:43:02;16.45;;;10.15;;
38083;SDS011;23894;51.466;7.444;2023-02-03T10:45:23;16.08;;;10.30;;
38083;SDS011;23894;51.466;7.444;2023-02-03T10:47:39;15.88;;;9.68;;
38083;SDS011;23894;51.466;7.444;2023-02-03T10:49:45;16.23;;;10.48;;
38083;SDS011;23894;51.466;7.444;2023-02-03T10:52:32;16.05;;;10.15;;
38083;SDS011;23894;51.466;7.444;2023-02-03T10:54:34;13.63;;;9.65;;
38083;SDS011;23894;51.466;7.444;2023-02-03T10:56:38;14.55;;;10.52;;
38083;SDS011;23894;51.466;7.444;2023-02-03T10:58:48;16.67;;;11.30;;
38083;SDS011;23894;51.466;7.444;2023-02-03T11:01:10;16.67;;;10.20;;
38083;SDS011;23894;51.466;7.444;2023-02-03T11:03:19;15.95;;;10.07;;
38083;SDS011;23894;51.466;7.444;2023-02-03T11:05:21;19.55;;;10.23;;
38083;SDS011;23894;51.466;7.444;2023-02-03T11:07:28;15.48;;;10.43;;
38083;SDS011;23894;51.466;7.444;2023-02-03T11:09:39;17.33;;;9.77;;
38083;SDS011;23894;51.466;7.444;2023-02-03T11:11:43;17.80;;;11.20;;
38083;SDS011;23894;51.466;7.444;2023-02-03T11:13:44;16.23;;;10.93;;
38083;SDS011;23894;51.466;7.444;2023-02-03T11:20:38;17.67;;;12.15;;
38083;SDS011;23894;51.466;7.444;2023-02-03T11:22:40;19.15;;;11.77;;
38083;SDS011;23894;51.466;7.444;2023-02-03T11:24:44;18.33;;;12.18;;
38083;SDS011;23894;51.466;7.444;2023-02-03T11:26:56;18.33;;;12.02;;
38083;SDS011;23894;51.466;7.444;2023-02-03T11:31:23;17.02;;;10.15;;
38083;SDS011;23894;51.466;7.444;2023-02-03T11:33:31;17.15;;;9.52;;
38083;SDS011;23894;51.466;7.444;2023-02-03T11:35:35;20.02;;;9.10;;
38083;SDS011;23894;51.466;7.444;2023-02-03T11:37:37;17.20;;;8.65;;
38083;SDS011;23894;51.466;7.444;2023-02-03T11:39:45;17.65;;;8.23;;
38083;SDS011;23894;51.466;7.444;2023-02-03T11:41:47;14.55;;;7.97;;
38083;SDS011;23894;51.466;7.444;2023-02-03T11:43:50;19.25;;;7.97;;
38083;SDS011;23894;51.466;7.444;2023-02-03T11:46:00;13.45;;;7.05;;
38083;SDS011;23894;51.466;7.444;2023-02-03T11:48:25;15.55;;;8.18;;
38083;SDS011;23894;51.466;7.444;2023-02-03T11:50:48;18.40;;;8.05;;
38083;SDS011;23894;51.466;7.444;2023-02-03T12:04:07;13.43;;;7.40;;
38083;SDS011;23894;51.466;7.444;2023-02-03T12:09:31;18.25;;;7.60;;
38083;SDS011;23894;51.466;7.444;2023-02-03T12:12:05;15.70;;;7.35;;
38083;SDS011;23894;51.466;7.444;2023-02-03T12:14:45;14.57;;;6.82;;
38083;SDS011;23894;51.466;7.444;2023-02-03T12:21:55;18.00;;;7.53;;
38083;SDS011;23894;51.466;7.444;2023-02-03T12:27:00;11.13;;;6.32;;
38083;SDS011;23894;51.466;7.444;2023-02-03T12:29:27;13.55;;;6.47;;
38083;SDS011;23894;51.466;7.444;2023-02-03T12:34:17;17.30;;;6.63;;
38083;SDS011;23894;51.466;7.444;2023-02-03T12:36:46;12.52;;;5.95;;
38083;SDS011;23894;51.466;7.444;2023-02-03T12:39:07;17.08;;;6.07;;
38083;SDS011;23894;51.466;7.444;2023-02-03T12:43:41;15.23;;;6.70;;
38083;SDS011;23894;51.466;7.444;2023-02-03T12:45:51;13.95;;;6.57;;
38083;SDS011;23894;51.466;7.444;2023-02-03T12:48:19;18.75;;;7.28;;
38083;SDS011;23894;51.466;7.444;2023-02-03T12:50:37;17.33;;;7.05;;
38083;SDS011;23894;51.466;7.444;2023-02-03T12:53:50;13.43;;;7.85;;
38083;SDS011;23894;51.466;7.444;2023-02-03T12:55:39;12.52;;;7.45;;
38083;SDS011;23894;51.466;7.444;2023-02-03T12:57:48;14.75;;;7.85;;
38083;SDS011;23894;51.466;7.444;2023-02-03T13:02:27;15.57;;;7.25;;
38083;SDS011;23894;51.466;7.444;2023-02-03T13:04:51;14.20;;;6.97;;
38083;SDS011;23894;51.466;7.444;2023-02-03T13:19:35;13.20;;;5.88;;
38083;SDS011;23894;51.466;7.444;2023-02-03T13:21:53;12.65;;;5.72;;
38083;SDS011;23894;51.466;7.444;2023-02-03T13:23:54;14.77;;;5.53;;
38083;SDS011;23894;51.466;7.444;2023-02-03T13:40:52;11.80;;;5.28;;
38083;SDS011;23894;51.466;7.444;2023-02-03T13:43:18;11.20;;;5.45;;
38083;SDS011;23894;51.466;7.444;2023-02-03T13:45:42;13.25;;;5.20;;
38083;SDS011;23894;51.466;7.444;2023-02-03T13:47:48;11.80;;;5.55;;
38083;SDS011;23894;51.466;7.444;2023-02-03T13:49:53;14.88;;;5.28;;
38083;SDS011;23894;51.466;7.444;2023-02-03T13:52:02;17.65;;;4.97;;
38083;SDS011;23894;51.466;7.444;2023-02-03T13:54:06;21.30;;;5.38;;
38083;SDS011;23894;51.466;7.444;2023-02-03T13:56:41;20.10;;;4.63;;
38083;SDS011;23894;51.466;7.444;2023-02-03T13:59:05;18.75;;;5.13;;
38083;SDS011;23894;51.466;7.444;2023-02-03T14:01:26;18.48;;;4.90;;
38083;SDS011;23894;51.466;7.444;2023-02-03T14:05:39;24.23;;;5.78;;
38083;SDS011;23894;51.466;7.444;2023-02-03T14:07:49;17.90;;;5.15;;
38083;SDS011;23894;51.466;7.444;2023-02-03T14:12:38;18.27;;;4.60;;
38083;SDS011;23894;51.466;7.444;2023-02-03T14:15:00;23.33;;;6.70;;
38083;SDS011;23894;51.466;7.444;2023-02-03T14:17:53;25.35;;;7.18;;
38083;SDS011;23894;51.466;7.444;2023-02-03T14:22:08;24.38;;;4.90;;
38083;SDS011;23894;51.466;7.444;2023-02-03T14:24:18;18.77;;;4.63;;